createdAt,value
2018-10-11T05:21:08.181Z,0
2018-10-11T05:22:17.349Z,0
2018-10-11T05:23:27.128Z,0
2018-10-11T05:24:36.302Z,0
2018-10-11T05:25:45.729Z,0
2018-10-11T05:26:55.160Z,0
2018-10-11T05:28:04.359Z,0
2018-10-11T05:29:14.039Z,0
2018-10-11T05:30:23.807Z,0
2018-10-11T05:31:33.231Z,0
2018-10-11T05:32:42.682Z,0
2018-10-11T05:33:52.371Z,0
2018-10-11T05:35:02.100Z,0
2018-10-11T05:36:11.811Z,0
2018-10-11T05:37:21.248Z,0
2018-10-11T05:38:30.919Z,0
2018-10-11T05:39:40.350Z,0
2018-10-11T05:40:49.815Z,0
2018-10-11T05:41:59.508Z,0
2018-10-11T05:43:09.005Z,0
2018-10-11T05:44:18.856Z,0
2018-10-11T05:45:29.046Z,0
2018-10-11T05:46:38.755Z,0
2018-10-11T05:47:47.934Z,0
2018-10-11T05:48:57.383Z,0
2018-10-11T05:50:07.347Z,0
2018-10-11T05:51:16.837Z,0
2018-10-11T05:52:26.795Z,0
2018-10-11T05:53:36.241Z,0
2018-10-11T05:54:45.738Z,0
2018-10-11T05:55:55.709Z,0
2018-10-11T05:57:05.196Z,0
2018-10-11T05:58:14.881Z,0
2018-10-11T05:59:24.065Z,0
2018-10-11T06:00:32.984Z,0
2018-10-11T06:01:42.194Z,0
2018-10-11T06:02:51.368Z,0
2018-10-11T06:04:01.368Z,0
2018-10-11T06:05:10.903Z,0
2018-10-11T06:06:20.591Z,0
2018-10-11T06:07:30.269Z,0
2018-10-11T06:08:39.958Z,0
2018-10-11T06:09:49.136Z,0
2018-10-11T06:10:58.915Z,0
2018-10-11T06:12:08.830Z,0
2018-10-11T06:13:18.097Z,0
2018-10-11T06:14:28.054Z,0
2018-10-11T06:15:37.488Z,0
2018-10-11T06:16:46.407Z,0
2018-10-11T06:17:55.895Z,0
2018-10-11T06:19:05.952Z,0
2018-10-11T06:20:15.382Z,0
2018-10-11T06:21:24.810Z,0
2018-10-11T06:22:34.037Z,0
2018-10-11T06:23:43.747Z,4
2018-10-11T06:24:53.309Z,4
2018-10-11T06:26:03.451Z,4
2018-10-11T06:27:13.145Z,4
2018-10-11T06:28:22.585Z,4
2018-10-11T06:29:31.819Z,4
2018-10-11T06:30:41.273Z,4
2018-10-11T06:31:51.229Z,4
2018-10-11T06:33:00.402Z,4
2018-10-11T06:34:09.579Z,4
2018-10-11T06:35:19.051Z,4
2018-10-11T06:36:29.360Z,4
2018-10-11T06:37:39.482Z,4
2018-10-11T06:38:49.173Z,4
2018-10-11T06:39:59.113Z,0
2018-10-11T06:41:08.275Z,0
2018-10-11T06:42:18.274Z,0
2018-10-11T06:43:27.456Z,0
2018-10-11T06:44:37.172Z,0
2018-10-11T06:45:46.610Z,0
2018-10-11T06:46:56.069Z,0
2018-10-11T06:48:05.759Z,0
2018-10-11T06:49:15.438Z,0
2018-10-11T06:50:25.001Z,4
2018-10-11T06:51:34.851Z,4
2018-10-11T06:52:44.281Z,4
2018-10-11T06:53:53.704Z,4
2018-10-11T06:55:03.430Z,4
2018-10-11T06:56:13.054Z,4
2018-10-11T06:57:22.567Z,4
2018-10-11T06:58:31.742Z,4
2018-10-11T06:59:40.925Z,4
2018-10-11T07:00:50.346Z,4
2018-10-11T07:02:00.117Z,4
2018-10-11T07:03:09.811Z,4
2018-10-11T07:04:19.011Z,4
2018-10-11T07:05:28.701Z,4
2018-10-11T07:06:38.658Z,4
2018-10-11T07:07:48.354Z,4
2018-10-11T07:08:57.535Z,4
2018-10-11T07:10:07.226Z,4
2018-10-11T07:11:16.746Z,4
2018-10-11T07:12:26.696Z,8
2018-10-11T07:13:36.291Z,4
2018-10-11T07:14:45.729Z,4
2018-10-11T07:15:54.926Z,4
2018-10-11T07:17:04.361Z,4
2018-10-11T07:18:13.529Z,4
2018-10-11T07:19:22.661Z,4
2018-10-11T07:20:32.103Z,4
2018-10-11T07:21:41.535Z,4
2018-10-11T07:22:51.515Z,4
2018-10-11T07:24:01.196Z,4
2018-10-11T07:25:10.628Z,4
2018-10-11T07:26:20.052Z,4
2018-10-11T07:27:29.483Z,8
2018-10-11T07:28:38.706Z,8
2018-10-11T07:29:48.409Z,8
2018-10-11T07:30:57.851Z,4
2018-10-11T07:32:07.564Z,4
2018-10-11T07:33:16.900Z,4
2018-10-11T07:34:26.677Z,4
2018-10-11T07:35:37.025Z,4
2018-10-11T07:36:46.750Z,4
2018-10-11T07:37:55.663Z,4
2018-10-11T07:39:05.440Z,8
2018-10-11T07:40:15.565Z,8
2018-10-11T07:41:25.479Z,8
2018-10-11T07:42:35.607Z,8
2018-10-11T07:43:45.378Z,4
2018-10-11T07:44:54.810Z,8
2018-10-11T07:46:04.752Z,8
2018-10-11T07:47:15.462Z,8
2018-10-11T07:48:25.248Z,8
2018-10-11T07:49:34.928Z,8
2018-10-11T07:50:44.114Z,8
2018-10-11T07:51:53.550Z,8
2018-10-11T07:53:03.079Z,8
2018-10-11T07:54:12.505Z,8
2018-10-11T07:55:22.463Z,8
2018-10-11T07:56:31.635Z,8
2018-10-11T07:57:41.329Z,12
2018-10-11T07:58:51.274Z,8
2018-10-11T08:00:00.733Z,8
2018-10-11T08:01:09.765Z,8
2018-10-11T08:02:19.947Z,8
2018-10-11T08:03:29.781Z,12
2018-10-11T08:04:39.606Z,8
2018-10-11T08:05:48.791Z,12
2018-10-11T08:06:58.542Z,12
2018-10-11T08:08:07.983Z,12
2018-10-11T08:09:17.618Z,12
2018-10-11T08:10:27.065Z,12
2018-10-11T08:11:37.557Z,12
2018-10-11T08:12:47.062Z,12
2018-10-11T08:13:56.253Z,12
2018-10-11T08:15:05.929Z,16
2018-10-11T08:16:16.188Z,16
2018-10-11T08:17:28.351Z,12
2018-10-11T08:18:39.305Z,16
2018-10-11T08:19:49.923Z,12
2018-10-11T08:20:59.675Z,12
2018-10-11T08:22:08.876Z,12
2018-10-11T08:23:18.045Z,12
2018-10-11T08:24:28.174Z,12
2018-10-11T08:25:40.429Z,16
2018-10-11T08:26:51.842Z,16
2018-10-11T08:28:01.610Z,12
2018-10-11T08:29:10.787Z,12
2018-10-11T08:30:20.476Z,12
2018-10-11T08:31:30.523Z,12
2018-10-11T08:32:41.161Z,12
2018-10-11T08:33:51.358Z,12
2018-10-11T08:35:00.520Z,12
2018-10-11T08:36:10.023Z,8
2018-10-11T08:37:18.930Z,12
2018-10-11T08:38:29.005Z,12
2018-10-11T08:39:38.269Z,16
2018-10-11T08:40:47.702Z,16
2018-10-11T08:41:56.619Z,16
2018-10-11T08:43:06.561Z,16
2018-10-11T08:44:16.492Z,20
2018-10-11T08:45:26.004Z,20
2018-10-11T08:46:35.705Z,20
2018-10-11T08:47:45.451Z,20
2018-10-11T08:48:54.899Z,20
2018-10-11T08:50:04.745Z,20
2018-10-11T08:51:14.008Z,12
2018-10-11T08:52:23.436Z,16
2018-10-11T08:53:33.127Z,20
2018-10-11T08:54:42.484Z,16
2018-10-11T08:55:52.646Z,16
2018-10-11T08:57:01.797Z,16
2018-10-11T08:58:11.496Z,20
2018-10-11T08:59:21.552Z,24
2018-10-11T09:00:31.330Z,24
2018-10-11T09:01:41.040Z,24
2018-10-11T09:02:50.489Z,24
2018-10-11T09:04:01.465Z,24
2018-10-11T09:05:12.593Z,24
2018-10-11T09:06:22.254Z,24
2018-10-11T09:07:31.947Z,24
2018-10-11T09:08:41.376Z,20
2018-10-11T09:09:58.382Z,20
2018-10-11T09:11:08.249Z,24
2018-10-11T09:12:17.821Z,16
2018-10-11T09:13:27.259Z,12
2018-10-11T09:14:37.219Z,20
2018-10-11T09:15:46.378Z,20
2018-10-11T09:16:56.071Z,20
2018-10-11T09:18:04.977Z,20
2018-10-11T09:19:14.405Z,16
2018-10-11T09:20:23.945Z,20
2018-10-11T09:21:33.403Z,20
2018-10-11T09:22:42.823Z,20
2018-10-11T09:23:52.274Z,24
2018-10-11T09:25:01.970Z,24
2018-10-11T09:26:11.129Z,20
2018-10-11T09:27:20.870Z,24
2018-10-11T09:28:30.038Z,20
2018-10-11T09:29:39.293Z,20
2018-10-11T09:30:48.722Z,28
2018-10-11T09:31:58.399Z,28
2018-10-11T09:33:08.095Z,20
2018-10-11T09:34:17.368Z,24
2018-10-11T09:35:26.536Z,16
2018-10-11T09:36:36.625Z,16
2018-10-11T09:37:46.398Z,16
2018-10-11T09:38:55.824Z,28
2018-10-11T09:40:05.284Z,24
2018-10-11T09:41:14.975Z,20
2018-10-11T09:42:24.415Z,24
2018-10-11T09:43:34.115Z,28
2018-10-11T09:44:43.550Z,24
2018-10-11T09:45:53.272Z,20
2018-10-11T09:47:02.725Z,20
2018-10-11T09:48:12.406Z,28
2018-10-11T09:49:22.376Z,24
2018-10-11T09:50:31.800Z,16
2018-10-11T09:51:40.961Z,16
2018-10-11T09:52:50.641Z,20
2018-10-11T09:53:59.958Z,24
2018-10-11T09:55:09.392Z,20
2018-10-11T09:56:18.816Z,20
2018-10-11T09:57:28.320Z,20
2018-10-11T09:58:37.735Z,16
2018-10-11T09:59:47.179Z,20
2018-10-11T10:00:56.648Z,20
2018-10-11T10:02:06.433Z,16
2018-10-11T10:03:16.216Z,16
2018-10-11T10:04:25.402Z,20
2018-10-11T10:05:34.894Z,28
2018-10-11T10:06:44.324Z,16
2018-10-11T10:07:54.028Z,20
2018-10-11T10:09:03.822Z,28
2018-10-11T10:10:13.254Z,20
2018-10-11T10:11:22.958Z,24
2018-10-11T10:12:32.640Z,20
2018-10-11T10:13:42.328Z,20
2018-10-11T10:14:52.074Z,20
2018-10-11T10:16:01.752Z,20
2018-10-11T10:17:11.175Z,20
2018-10-11T10:18:20.904Z,20
2018-10-11T10:19:30.338Z,20
2018-10-11T10:20:39.246Z,20
2018-10-11T10:21:49.281Z,20
2018-10-11T10:22:58.460Z,20
2018-10-11T10:24:07.932Z,20
2018-10-11T10:25:17.627Z,20
2018-10-11T10:26:27.058Z,20
2018-10-11T10:27:37.179Z,20
2018-10-11T10:28:46.862Z,20
2018-10-11T10:29:56.290Z,20
2018-10-11T10:31:05.735Z,20
2018-10-11T10:32:14.674Z,20
2018-10-11T10:33:24.378Z,24
2018-10-11T10:34:33.546Z,24
2018-10-11T10:35:42.716Z,20
2018-10-11T10:36:52.129Z,20
2018-10-11T10:38:01.300Z,24
2018-10-11T10:39:10.517Z,20
2018-10-11T10:40:19.698Z,24
2018-10-11T10:41:29.122Z,24
2018-10-11T10:42:38.540Z,20
2018-10-11T10:43:48.234Z,20
2018-10-11T10:44:57.564Z,20
2018-10-11T10:46:07.237Z,20
2018-10-11T10:47:16.949Z,20
2018-10-11T10:48:26.894Z,16
2018-10-11T10:49:36.603Z,20
2018-10-11T10:50:46.042Z,20
2018-10-11T10:51:55.726Z,20
2018-10-11T10:53:05.442Z,20
2018-10-11T10:54:15.010Z,16
2018-10-11T10:55:24.602Z,12
2018-10-11T10:56:34.018Z,12
2018-10-11T10:57:43.481Z,12
2018-10-11T10:58:52.924Z,16
2018-10-11T11:00:02.362Z,12
2018-10-11T11:01:11.537Z,12
2018-10-11T11:02:21.298Z,16
2018-10-11T11:03:30.765Z,20
2018-10-11T11:04:40.456Z,24
2018-10-11T11:05:49.625Z,20
2018-10-11T11:06:59.073Z,12
2018-10-11T11:08:08.001Z,12
2018-10-11T11:09:17.977Z,16
2018-10-11T11:10:27.159Z,16
2018-10-11T11:11:36.878Z,12
2018-10-11T11:12:46.302Z,12
2018-10-11T11:13:55.489Z,12
2018-10-11T11:15:04.655Z,8
2018-10-11T11:16:13.570Z,8
2018-10-11T11:17:23.265Z,12
2018-10-11T11:18:32.423Z,12
2018-10-11T11:19:41.869Z,16
2018-10-11T11:20:50.781Z,16
2018-10-11T11:21:59.700Z,16
2018-10-11T11:23:08.875Z,12
2018-10-11T11:24:17.814Z,16
2018-10-11T11:25:27.022Z,16
2018-10-11T11:26:36.443Z,12
2018-10-11T11:27:46.386Z,12
2018-10-11T11:28:55.812Z,12
2018-10-11T11:30:04.977Z,12
2018-10-11T11:31:14.513Z,12
2018-10-11T11:32:24.218Z,16
2018-10-11T11:33:33.387Z,12
2018-10-11T11:34:42.816Z,16
2018-10-11T11:35:51.729Z,12
2018-10-11T11:37:00.413Z,12
2018-10-11T11:38:09.592Z,16
2018-10-11T11:39:19.020Z,12
2018-10-11T11:40:28.703Z,16
2018-10-11T11:41:38.388Z,12
2018-10-11T11:42:47.837Z,16
2018-10-11T11:43:56.758Z,12
2018-10-11T11:45:06.456Z,16
2018-10-11T11:46:15.636Z,16
2018-10-11T11:47:25.335Z,12
2018-10-11T11:48:34.643Z,16
2018-10-11T11:49:44.329Z,20
2018-10-11T11:50:53.501Z,20
2018-10-11T11:52:03.243Z,16
2018-10-11T11:53:12.924Z,12
2018-10-11T11:54:22.974Z,12
2018-10-11T11:55:32.936Z,12
2018-10-11T11:56:42.116Z,16
2018-10-11T11:57:51.589Z,12
2018-10-11T11:59:02.013Z,8
2018-10-11T12:00:11.700Z,12
2018-10-11T12:01:20.989Z,12
2018-10-11T12:02:30.229Z,12
2018-10-11T12:03:39.761Z,12
2018-10-11T12:04:49.482Z,12
2018-10-11T12:05:58.709Z,16
2018-10-11T12:07:08.399Z,16
2018-10-11T12:08:17.826Z,12
2018-10-11T12:09:27.508Z,12
2018-10-11T12:10:37.485Z,12
2018-10-11T12:11:47.081Z,12
2018-10-11T12:12:56.510Z,12
2018-10-11T12:14:06.446Z,8
2018-10-11T12:15:15.610Z,8
2018-10-11T12:16:25.565Z,8
2018-10-11T12:17:35.059Z,8
2018-10-11T12:18:44.761Z,12
2018-10-11T12:19:54.721Z,8
2018-10-11T12:21:04.450Z,12
2018-10-11T12:22:13.432Z,12
2018-10-11T12:23:23.059Z,8
2018-10-11T12:24:32.242Z,12
2018-10-11T12:25:41.969Z,8
2018-10-11T12:26:51.200Z,8
2018-10-11T12:28:00.899Z,8
2018-10-11T12:29:10.725Z,8
2018-10-11T12:30:19.893Z,8
2018-10-11T12:31:29.069Z,8
2018-10-11T12:32:38.491Z,4
2018-10-11T12:33:48.169Z,4
2018-10-11T12:34:57.839Z,4
2018-10-11T12:36:07.269Z,4
2018-10-11T12:37:16.953Z,4
2018-10-11T12:38:26.649Z,4
2018-10-11T12:39:36.386Z,4
2018-10-11T12:40:45.564Z,8
2018-10-11T12:41:54.728Z,8
2018-10-11T12:43:04.166Z,8
2018-10-11T12:44:13.615Z,8
2018-10-11T12:45:24.003Z,8
2018-10-11T12:46:41.510Z,8
2018-10-11T12:47:51.068Z,8
2018-10-11T12:49:00.810Z,8
2018-10-11T12:50:10.586Z,8
2018-10-11T12:51:20.338Z,8
2018-10-11T12:52:30.031Z,8
2018-10-11T12:53:48.532Z,8
2018-10-11T12:54:58.706Z,8
2018-10-11T12:56:08.413Z,8
2018-10-11T12:57:22.598Z,8
2018-10-11T12:58:32.111Z,8
2018-10-11T12:59:41.538Z,8
2018-10-11T13:00:50.820Z,8
2018-10-11T13:02:00.097Z,8
2018-10-11T13:03:09.806Z,8
2018-10-11T13:04:19.523Z,8
2018-10-11T13:05:28.762Z,4
2018-10-11T13:06:38.729Z,8
2018-10-11T13:07:48.422Z,8
2018-10-11T13:08:57.862Z,8
2018-10-11T13:10:07.566Z,8
2018-10-11T13:11:17.526Z,8
2018-10-11T13:12:26.732Z,8
2018-10-11T13:13:36.203Z,8
2018-10-11T13:14:45.901Z,4
2018-10-11T13:15:57.961Z,8
2018-10-11T13:17:08.593Z,8
2018-10-11T13:18:18.025Z,8
2018-10-11T13:19:27.736Z,8
2018-10-11T13:20:37.676Z,8
2018-10-11T13:21:47.198Z,8
2018-10-11T13:22:57.557Z,8
2018-10-11T13:24:07.543Z,8
2018-10-11T13:25:17.514Z,8
2018-10-11T13:26:27.069Z,8
2018-10-11T13:27:36.768Z,8
2018-10-11T13:28:46.374Z,8
2018-10-11T13:29:55.991Z,4
2018-10-11T13:31:05.689Z,8
2018-10-11T13:32:14.873Z,8
2018-10-11T13:33:24.309Z,8
2018-10-11T13:34:33.881Z,8
2018-10-11T13:35:43.054Z,8
2018-10-11T13:36:51.959Z,8
2018-10-11T13:38:01.390Z,4
2018-10-11T13:39:11.341Z,4
2018-10-11T13:40:20.532Z,8
2018-10-11T13:41:29.842Z,8
2018-10-11T13:42:38.698Z,4
2018-10-11T13:43:48.145Z,4
2018-10-11T13:44:58.097Z,8
2018-10-11T13:46:09.821Z,8
2018-10-11T13:47:20.084Z,8
2018-10-11T13:48:29.697Z,8
2018-10-11T13:49:39.626Z,8
2018-10-11T13:50:49.315Z,8
2018-10-11T13:51:58.823Z,8
2018-10-11T13:53:07.778Z,8
2018-10-11T13:54:20.936Z,4
2018-10-11T13:55:30.880Z,4
2018-10-11T13:56:40.303Z,4
2018-10-11T13:57:50.006Z,4
2018-10-11T13:59:00.423Z,4
2018-10-11T14:00:15.055Z,8
2018-10-11T14:01:24.487Z,4
2018-10-11T14:02:33.918Z,4
2018-10-11T14:03:43.098Z,4
2018-10-11T14:04:52.849Z,4
2018-10-11T14:06:02.018Z,8
2018-10-11T14:07:11.534Z,8
2018-10-11T14:08:21.223Z,8
2018-10-11T14:09:30.933Z,8
2018-10-11T14:10:40.827Z,4
2018-10-11T14:11:50.725Z,8
2018-10-11T14:13:00.409Z,8
2018-10-11T14:14:09.569Z,8
2018-10-11T14:15:19.021Z,8
2018-10-11T14:16:28.190Z,8
2018-10-11T14:17:37.794Z,8
2018-10-11T14:18:47.851Z,8
2018-10-11T14:19:57.530Z,8
2018-10-11T14:21:06.705Z,8
2018-10-11T14:22:16.154Z,8
2018-10-11T14:23:25.333Z,12
2018-10-11T14:24:35.035Z,12
2018-10-11T14:25:44.993Z,12
2018-10-11T14:26:54.423Z,12
2018-10-11T14:28:03.919Z,12
2018-10-11T14:29:13.091Z,12
2018-10-11T14:30:23.031Z,12
2018-10-11T14:31:32.727Z,8
2018-10-11T14:32:42.157Z,12
2018-10-11T14:33:51.591Z,8
2018-10-11T14:35:01.314Z,8
2018-10-11T14:36:11.480Z,8
2018-10-11T14:37:21.955Z,12
2018-10-11T14:38:31.191Z,8
2018-10-11T14:39:40.932Z,8
2018-10-11T14:40:50.396Z,8
2018-10-11T14:41:59.980Z,8
2018-10-11T14:43:10.161Z,8
2018-10-11T14:44:20.180Z,8
2018-10-11T14:45:29.875Z,8
2018-10-11T14:46:39.807Z,4
2018-10-11T14:47:49.261Z,8
2018-10-11T14:48:59.268Z,4
2018-10-11T14:50:09.252Z,4
2018-10-11T14:51:19.586Z,4
2018-10-11T14:52:29.426Z,0
2018-10-11T14:53:38.325Z,4
2018-10-11T14:54:48.052Z,4
2018-10-11T14:55:58.016Z,4
2018-10-11T14:57:07.202Z,4
2018-10-11T14:58:16.728Z,4
2018-10-11T14:59:26.893Z,4
2018-10-11T15:00:36.719Z,4
2018-10-11T15:01:46.343Z,4
2018-10-11T15:02:56.421Z,4
2018-10-11T15:04:05.838Z,4
2018-10-11T15:05:15.860Z,4
2018-10-11T15:06:25.629Z,4
2018-10-11T15:07:35.018Z,4
2018-10-11T15:08:44.965Z,4
2018-10-11T15:09:54.401Z,4
2018-10-11T15:11:04.287Z,4
2018-10-11T15:12:14.427Z,4
2018-10-11T15:13:23.084Z,4
2018-10-11T15:14:32.053Z,4
2018-10-11T15:15:41.736Z,4
2018-10-11T15:16:51.216Z,4
2018-10-11T15:18:01.403Z,4
2018-10-11T15:19:10.755Z,4
2018-10-11T15:20:19.698Z,4
2018-10-11T15:21:28.854Z,4
2018-10-11T15:22:38.032Z,4
2018-10-11T15:23:47.624Z,4
2018-10-11T15:24:57.436Z,4
2018-10-11T15:26:07.134Z,4
2018-10-11T15:27:16.568Z,0
2018-10-11T15:28:25.995Z,4
2018-10-11T15:29:35.983Z,4
2018-10-11T15:30:45.421Z,4
2018-10-11T15:31:55.171Z,4
2018-10-11T15:33:04.625Z,4
2018-10-11T15:34:14.316Z,4
2018-10-11T15:35:23.445Z,4
2018-10-11T15:36:33.134Z,4
2018-10-11T15:37:42.581Z,4
2018-10-11T15:38:52.029Z,4
2018-10-11T15:40:01.705Z,4
2018-10-11T15:41:11.136Z,4
2018-10-11T15:42:20.807Z,4
2018-10-11T15:43:30.230Z,4
2018-10-11T15:44:39.414Z,4
2018-10-11T15:45:49.146Z,4
2018-10-11T15:46:58.906Z,0
2018-10-11T15:48:08.079Z,0
2018-10-11T15:49:17.778Z,4
2018-10-11T15:50:27.224Z,4
2018-10-11T15:51:37.349Z,4
2018-10-11T15:52:47.190Z,4
2018-10-11T15:53:56.955Z,4
2018-10-11T15:55:06.631Z,4
2018-10-11T15:56:15.789Z,4
2018-10-11T15:57:25.217Z,4
2018-10-11T15:58:34.964Z,4
2018-10-11T15:59:44.203Z,4
2018-10-11T16:00:53.629Z,4
2018-10-11T16:02:03.323Z,4
2018-10-11T16:03:13.257Z,4
2018-10-11T16:04:22.189Z,0
2018-10-11T16:05:31.891Z,0
2018-10-11T16:06:41.725Z,4
2018-10-11T16:07:51.163Z,4
2018-10-11T16:09:01.530Z,4
2018-10-11T16:10:11.394Z,4
2018-10-11T16:11:21.329Z,0
2018-10-11T16:12:30.504Z,0
2018-10-11T16:13:39.401Z,0
2018-10-11T16:14:49.087Z,0
2018-10-11T16:15:58.762Z,4
2018-10-11T16:17:08.183Z,4
2018-10-11T16:18:17.633Z,4
2018-10-11T16:19:27.056Z,4
2018-10-11T16:20:36.755Z,0
2018-10-11T16:21:45.928Z,0
2018-10-11T16:22:55.356Z,0
2018-10-11T16:24:04.786Z,0
2018-10-11T16:25:14.229Z,0
2018-10-11T16:26:24.174Z,0
2018-10-11T16:27:33.598Z,0
2018-10-11T16:28:42.903Z,0
2018-10-11T16:29:52.062Z,0
2018-10-11T16:31:01.248Z,0
2018-10-11T16:32:10.818Z,0
2018-10-11T16:33:20.077Z,0
2018-10-11T16:34:29.511Z,0
2018-10-11T16:35:39.460Z,0
2018-10-11T16:36:48.665Z,0
2018-10-11T16:37:58.389Z,0
2018-10-11T16:39:08.447Z,0
2018-10-11T16:40:18.328Z,0
2018-10-11T16:41:27.751Z,0
2018-10-11T16:42:36.920Z,0
2018-10-11T16:43:46.106Z,0
2018-10-11T16:44:55.804Z,0
2018-10-11T16:46:05.503Z,0
2018-10-11T16:47:14.928Z,0
2018-10-11T16:48:24.361Z,0
2018-10-11T16:49:34.230Z,0
2018-10-11T16:50:44.260Z,0
2018-10-11T16:51:53.167Z,0
2018-10-11T16:53:02.598Z,0
2018-10-11T16:54:12.044Z,0
2018-10-11T16:55:21.741Z,0
2018-10-11T16:56:30.888Z,0
2018-10-11T16:57:40.587Z,0
2018-10-11T16:58:50.013Z,0
2018-10-11T16:59:59.941Z,0
2018-10-11T17:01:08.877Z,0
2018-10-11T17:02:18.292Z,0
2018-10-11T17:03:27.504Z,4
2018-10-11T17:04:37.089Z,4
2018-10-11T17:05:46.808Z,0
2018-10-11T17:06:56.230Z,0
2018-10-11T17:08:05.668Z,0
2018-10-11T17:09:14.859Z,0
2018-10-11T17:10:24.536Z,0
2018-10-11T17:11:34.259Z,0
2018-10-11T17:12:43.714Z,0
2018-10-11T17:13:53.164Z,0
2018-10-11T17:15:02.979Z,0
2018-10-11T17:16:12.407Z,0
2018-10-11T17:17:21.839Z,0
2018-10-11T17:18:31.795Z,0
2018-10-11T17:19:41.471Z,0
2018-10-11T17:20:50.656Z,0
2018-10-11T17:22:00.306Z,0
2018-10-11T17:23:09.524Z,0
2018-10-11T17:24:18.963Z,0
2018-10-11T17:25:28.912Z,0
2018-10-11T17:26:38.404Z,0
2018-10-11T17:27:47.829Z,0
2018-10-11T17:28:57.029Z,0
2018-10-11T17:30:06.481Z,0
2018-10-11T17:31:15.136Z,0
2018-10-11T17:32:24.580Z,0
2018-10-11T17:33:34.270Z,0
2018-10-11T17:35:17.092Z,0
2018-10-11T17:36:27.944Z,0
2018-10-11T17:37:37.371Z,0
2018-10-11T17:38:46.626Z,0
2018-10-11T17:39:55.508Z,0
2018-10-11T17:41:05.189Z,0
2018-10-11T17:42:15.282Z,0
2018-10-11T17:43:24.899Z,0
2018-10-11T17:44:34.754Z,0
2018-10-11T17:45:44.691Z,0
2018-10-11T17:46:54.382Z,0
2018-10-11T17:48:03.662Z,0
2018-10-11T17:49:13.086Z,0
2018-10-11T17:50:23.401Z,0
2018-10-11T17:51:33.134Z,0
2018-10-11T17:52:42.442Z,0
2018-10-11T17:53:52.208Z,0
2018-10-11T17:55:01.909Z,0
2018-10-11T17:56:11.546Z,0
2018-10-11T17:57:21.254Z,0
2018-10-11T17:58:30.698Z,0
2018-10-11T17:59:40.383Z,0
2018-10-11T18:00:49.552Z,0
2018-10-11T18:01:58.484Z,0
2018-10-11T18:03:07.984Z,0
2018-10-11T18:04:17.840Z,0
2018-10-11T18:05:27.538Z,0
2018-10-11T18:06:36.718Z,0
2018-10-11T18:07:46.714Z,0
2018-10-11T18:08:55.887Z,0
2018-10-11T18:10:06.349Z,0
2018-10-11T18:11:16.486Z,0
2018-10-11T18:12:25.456Z,0
2018-10-11T18:13:34.126Z,0
2018-10-11T18:14:43.734Z,0
2018-10-11T18:15:53.215Z,0
2018-10-11T18:17:03.017Z,0
2018-10-11T18:18:12.451Z,0
2018-10-11T18:19:22.404Z,0
2018-10-11T18:20:31.578Z,0
2018-10-11T18:21:41.709Z,0
2018-10-11T18:22:51.592Z,0
2018-10-11T18:24:01.033Z,0
2018-10-11T18:25:10.222Z,0
2018-10-11T18:26:19.975Z,0
2018-10-11T18:27:29.658Z,0
2018-10-11T18:28:39.081Z,0
2018-10-11T18:29:48.786Z,0
2018-10-11T18:30:58.477Z,0
2018-10-11T18:32:07.695Z,0
2018-10-11T18:33:17.403Z,0
2018-10-11T18:34:26.865Z,0
2018-10-11T18:35:36.761Z,0
2018-10-11T18:36:46.414Z,0
2018-10-11T18:37:55.902Z,0
2018-10-11T18:39:05.343Z,0
2018-10-11T18:40:14.798Z,4
2018-10-11T18:41:24.633Z,0
2018-10-11T18:42:34.350Z,0
2018-10-11T18:43:44.123Z,0
2018-10-11T18:44:54.132Z,0
2018-10-11T18:46:03.732Z,0
2018-10-11T18:47:13.161Z,0
2018-10-11T18:48:22.616Z,0
2018-10-11T18:49:32.330Z,0
2018-10-11T18:50:41.831Z,0
2018-10-11T18:51:51.004Z,0
2018-10-11T18:53:00.714Z,0
2018-10-11T18:54:09.899Z,0
2018-10-11T18:55:19.372Z,0
2018-10-11T18:56:28.970Z,0
2018-10-11T18:57:38.994Z,0
2018-10-11T18:58:48.472Z,0
2018-10-11T18:59:57.920Z,0
2018-10-11T19:01:07.860Z,0
2018-10-11T19:02:17.079Z,0
2018-10-11T19:03:27.041Z,0
2018-10-11T19:04:36.500Z,0
2018-10-11T19:05:46.612Z,0
2018-10-11T19:06:56.038Z,0
2018-10-11T19:08:05.480Z,0
2018-10-11T19:09:14.923Z,0
2018-10-11T19:10:24.353Z,0
2018-10-11T19:11:34.055Z,0
2018-10-11T19:12:43.236Z,0
2018-10-11T19:13:52.746Z,0
2018-10-11T19:15:02.170Z,0
2018-10-11T19:16:11.865Z,0
2018-10-11T19:17:21.811Z,0
2018-10-11T19:18:30.483Z,0
2018-10-11T19:19:39.912Z,0
2018-10-11T19:20:49.280Z,0
2018-10-11T19:21:58.961Z,0
2018-10-11T19:23:08.398Z,0
2018-10-11T19:24:17.844Z,0
2018-10-11T19:25:27.539Z,0
2018-10-11T19:26:37.569Z,0
2018-10-11T19:27:47.245Z,0
2018-10-11T19:28:56.515Z,0
2018-10-11T19:30:06.267Z,0
2018-10-11T19:31:15.738Z,0
2018-10-11T19:32:24.909Z,0
2018-10-11T19:33:34.073Z,0
2018-10-11T19:34:43.491Z,0
2018-10-11T19:35:52.916Z,0
2018-10-11T19:37:02.874Z,0
2018-10-11T19:38:12.307Z,0
2018-10-11T19:39:22.321Z,0
2018-10-11T19:40:31.493Z,0
2018-10-11T19:41:40.934Z,0
2018-10-11T19:42:50.186Z,0
2018-10-11T19:43:59.899Z,0
2018-10-11T19:45:08.805Z,0
2018-10-11T19:46:18.505Z,0
2018-10-11T19:47:27.952Z,0
2018-10-11T19:48:38.161Z,0
2018-10-11T19:49:47.867Z,0
2018-10-11T19:50:57.051Z,0
2018-10-11T19:52:06.240Z,0
2018-10-11T19:53:15.924Z,0
2018-10-11T19:54:25.586Z,0
2018-10-11T19:55:34.749Z,0
2018-10-11T19:56:44.273Z,0
2018-10-11T19:57:54.021Z,0
2018-10-11T19:59:03.800Z,0
2018-10-11T20:00:13.005Z,0
2018-10-11T20:01:22.455Z,0
2018-10-11T20:02:31.641Z,0
2018-10-11T20:03:41.067Z,0
2018-10-11T20:04:50.348Z,0
2018-10-11T20:05:59.888Z,0
2018-10-11T20:07:09.113Z,0
2018-10-11T20:08:18.757Z,0
2018-10-11T20:09:28.602Z,0
2018-10-11T20:10:37.825Z,0
2018-10-11T20:11:46.969Z,0
2018-10-11T20:12:56.401Z,0
2018-10-11T20:14:05.365Z,0
2018-10-11T20:15:15.078Z,0
2018-10-11T20:16:24.818Z,0
2018-10-11T20:17:34.268Z,0
2018-10-11T20:18:44.015Z,0
2018-10-11T20:19:53.706Z,0
2018-10-11T20:21:03.201Z,0
2018-10-11T20:22:12.668Z,0
2018-10-11T20:23:22.624Z,0
2018-10-11T20:24:31.295Z,0
2018-10-11T20:25:40.467Z,0
2018-10-11T20:26:49.699Z,0
2018-10-11T20:27:58.906Z,0
2018-10-11T20:29:08.596Z,0
2018-10-11T20:30:18.029Z,0
2018-10-11T20:31:27.466Z,0
2018-10-11T20:32:36.967Z,0
2018-10-11T20:33:46.736Z,0
2018-10-11T20:34:56.181Z,0
2018-10-11T20:36:05.875Z,0
2018-10-11T20:37:15.302Z,0
2018-10-11T20:38:25.242Z,0
2018-10-11T20:39:34.707Z,0
2018-10-11T20:40:44.671Z,0
2018-10-11T20:41:54.111Z,0
2018-10-11T20:43:04.058Z,0
2018-10-11T20:44:13.482Z,0
2018-10-11T20:45:22.911Z,0
2018-10-11T20:46:32.077Z,0
2018-10-11T20:47:42.101Z,0
2018-10-11T20:48:51.580Z,0
2018-10-11T20:50:00.766Z,0
2018-10-11T20:51:10.115Z,0
2018-10-11T20:52:19.985Z,0
2018-10-11T20:53:29.191Z,0
2018-10-11T20:54:39.946Z,0
2018-10-11T20:55:49.032Z,0
2018-10-11T20:56:59.543Z,0
2018-10-11T20:58:09.241Z,0
2018-10-11T20:59:18.978Z,0
2018-10-11T21:00:28.404Z,0
2018-10-11T21:01:37.324Z,0
2018-10-11T21:02:47.014Z,0
2018-10-11T21:03:56.704Z,0
2018-10-11T21:05:06.401Z,0
2018-10-11T21:06:15.648Z,0
2018-10-11T21:07:25.090Z,0
2018-10-11T21:08:34.837Z,0
2018-10-11T21:09:44.331Z,0
2018-10-11T21:10:53.809Z,0
2018-10-11T21:12:03.545Z,0
2018-10-11T21:13:12.990Z,0
2018-10-11T21:14:22.667Z,0
2018-10-11T21:15:32.853Z,0
2018-10-11T21:16:42.112Z,0
2018-10-11T21:17:51.586Z,0
2018-10-11T21:19:01.014Z,0
2018-10-11T21:20:11.612Z,0
2018-10-11T21:21:21.854Z,0
2018-10-11T21:22:31.546Z,0
2018-10-11T21:23:41.873Z,0
2018-10-11T21:24:51.304Z,0
2018-10-11T21:26:00.918Z,0
2018-10-11T21:27:11.715Z,0
2018-10-11T21:28:21.832Z,0
2018-10-11T21:29:31.532Z,0
2018-10-11T21:30:41.023Z,0
2018-10-11T21:31:50.635Z,0
2018-10-11T21:33:00.309Z,0
2018-10-11T21:34:09.241Z,0
2018-10-11T21:35:20.047Z,0
2018-10-11T21:36:30.067Z,0
2018-10-11T21:37:40.213Z,0
2018-10-11T21:38:49.855Z,0
2018-10-11T21:39:59.298Z,0
2018-10-11T21:41:08.473Z,0
2018-10-11T21:42:17.882Z,0
2018-10-11T21:43:27.328Z,0
2018-10-11T21:44:36.429Z,0
2018-10-11T21:45:45.868Z,0
2018-10-11T21:46:54.549Z,0
2018-10-11T21:48:03.978Z,0
2018-10-11T21:49:13.171Z,0
2018-10-11T21:50:22.646Z,0
2018-10-11T21:51:31.569Z,0
2018-10-11T21:52:41.414Z,0
2018-10-11T21:53:51.409Z,0
2018-10-11T21:55:00.595Z,0
2018-10-11T21:56:10.023Z,0
2018-10-11T21:57:19.198Z,0
2018-10-11T21:58:28.915Z,0
2018-10-11T21:59:38.397Z,0
2018-10-11T22:00:48.144Z,0
2018-10-11T22:01:57.873Z,0
2018-10-11T22:03:07.636Z,0
2018-10-11T22:04:17.081Z,0
2018-10-11T22:05:25.982Z,0
2018-10-11T22:06:35.409Z,0
2018-10-11T22:07:44.582Z,0
2018-10-11T22:08:54.024Z,0
2018-10-11T22:10:03.471Z,0
2018-10-11T22:11:12.629Z,0
2018-10-11T22:12:22.321Z,0
2018-10-11T22:13:31.755Z,0
2018-10-11T22:14:41.515Z,0
2018-10-11T22:15:51.369Z,0
2018-10-11T22:17:00.547Z,0
2018-10-11T22:18:09.827Z,0
2018-10-11T22:19:19.248Z,0
2018-10-11T22:20:29.003Z,0